Relatórios de METAR próximas

 

LPAR - Alverca, Portugal
Distance from station: S 38km
Actualizado: 20/01/2020 14:00
Céu Limpo
Céu Limpo
 Vento de NE
Vento: NE 31 km/h
Temperatura: 12°C
Ponto de Orvalho: -1°C
Humidade: 41%
Barómetro: 1019 hPa
Resumo: Céu Limpo
Visibilidade: greater than 10 km
2020/01/20 14:00 LPAR 201400Z 05017KT CAVOK 12/M01 Q1019
LPPT - Lisbon/Portela, Portugal
Distance from station: S 52km
Actualizado: 20/01/2020 14:00
Céu Limpo
Céu Limpo
 Vento de NNE
Vento: NNE 31 km/h
Temperatura: 10°C
Índice Frio: 7°C
Ponto de Orvalho: -2°C
Humidade: 43%
Barómetro: 1019 hPa
Resumo: Céu Limpo
Visibilidade: greater than 10 km
2020/01/20 14:00 LPPT 201400Z 03017KT CAVOK 10/M02 Q1019
 
LPST - Sintra/Granja (a, Portugal
Distance from station: SSO 53km
Actualizado: 20/01/2020 14:00
Few Clouds
Few Clouds
 Vento de NE
Vento: NE 22 km/h, Rajada: 41 km/h
Temperatura: 11°C
Ponto de Orvalho: -5°C
Humidade: 32%
Barómetro: 1019 hPa
Nuvens: Few Clouds
Visibilidade: 10 km
Cloud details: Few Clouds 1219 m
2020/01/20 14:00 LPST 201400Z 05012G22KT 020V080 9999 FEW040 11/M05 Q1019
LPMT - Montijo (por-Afb, Portugal
Distance from station: S 59km
Actualizado: 20/01/2020 14:00
Céu Limpo
Céu Limpo
 Vento de NNE
Vento: NNE 35 km/h
Temperatura: 12°C
Ponto de Orvalho: -1°C
Humidade: 41%
Barómetro: 1019 hPa
Resumo: Céu Limpo
Visibilidade: greater than 10 km
2020/01/20 14:00 LPMT 201400Z 03019KT CAVOK 12/M01 Q1019
 
LPCS - Cascais, Portugal
Distance from station: SSO 63km
Actualizado: 20/01/2020 14:00
Céu Limpo
Céu Limpo
 Vento de NNE
Vento: NNE 28 km/h
Temperatura: 12°C
Ponto de Orvalho: -3°C
Humidade: 35%
Barómetro: 1019 hPa
Resumo: Céu Limpo
Visibilidade: greater than 10 km
2020/01/20 14:00 LPCS 201400Z 02015KT CAVOK 12/M03 Q1019
LPMR - Monte Real(Por-A, Portugal
Distance from station: N 67km
Actualizado: 20/01/2020 14:00
Few Clouds
Few Clouds
 Vento de NE
Vento: NE 26 km/h
Temperatura: 11°C
Ponto de Orvalho: -4°C
Humidade: 35%
Barómetro: 1021 hPa
Nuvens: Few Clouds
Visibilidade: 10 km
Cloud details: Few Clouds 762 m
2020/01/20 14:00 LPMR 201400Z 04014KT 9999 FEW025 11/M04 Q1021